Time;durP1;ratioP1;P1;durP2;ratioP2;P2;SDS_P1;SDS_P2;PMS_P1;PMS_P2;Temp;Humidity;BMP_temperature;BMP_pressure;BME280_temperature;BME280_humidity;BME280_pressure;Samples;Min_cycle;Max_cycle;Signal;HPM_P1;HPM_P2
2022/05/08 00:00:25;;;;;;;10.63;8.80;;;;;;;;;;10458713;28;20824;-81
2022/05/08 00:05:27;;;;;;;9.60;8.13;;;;;;;;;;10446431;28;20400;-80
2022/05/08 00:10:30;;;;;;;7.00;6.30;;;;;;;;;;10445735;28;20410;-80
2022/05/08 00:15:32;;;;;;;8.38;7.07;;;;;;;;;;10441197;28;20970;-81
2022/05/08 00:20:34;;;;;;;7.38;6.32;;;;;;;;;;10442216;28;20396;-80
2022/05/08 00:25:37;;;;;;;6.83;5.53;;;;;;;;;;10442531;28;20439;-81
2022/05/08 00:30:39;;;;;;;7.20;5.63;;;;;;;;;;10442283;28;20400;-81
2022/05/08 00:35:40;;;;;;;6.33;5.20;;;;;;;;;;10440167;28;20815;-80
2022/05/08 00:40:44;;;;;;;6.40;5.80;;;;;;;;;;10446766;28;20506;-81
2022/05/08 00:45:45;;;;;;;7.35;6.65;;;;;;;;;;10448423;28;20481;-81
2022/05/08 00:50:47;;;;;;;7.47;6.78;;;;;;;;;;10445321;28;20518;-81
2022/05/08 00:55:51;;;;;;;8.07;7.27;;;;;;;;;;10437435;28;20434;-81
2022/05/08 01:00:54;;;;;;;8.37;7.00;;;;;;;;;;10446677;28;20488;-82
2022/05/08 01:05:57;;;;;;;7.90;6.85;;;;;;;;;;10450706;28;20404;-81
2022/05/08 01:11:02;;;;;;;7.35;6.38;;;;;;;;;;10439805;28;20404;-81
2022/05/08 01:16:08;;;;;;;6.17;5.57;;;;;;;;;;10450617;28;20658;-81
2022/05/08 01:21:11;;;;;;;7.72;6.18;;;;;;;;;;10445819;28;20936;-81
2022/05/08 01:26:21;;;;;;;6.97;6.10;;;;;;;;;;10439624;28;20396;-81
2022/05/08 01:31:23;;;;;;;6.90;6.05;;;;;;;;;;10447263;28;20915;-79
2022/05/08 01:36:25;;;;;;;6.70;6.00;;;;;;;;;;10448474;28;20427;-81
2022/05/08 01:41:28;;;;;;;7.20;6.10;;;;;;;;;;10438913;28;20418;-80
2022/05/08 01:46:30;;;;;;;6.65;5.88;;;;;;;;;;10436263;28;20427;-81
2022/05/08 01:51:32;;;;;;;6.43;5.80;;;;;;;;;;10439986;28;20443;-82
2022/05/08 01:56:35;;;;;;;7.20;5.95;;;;;;;;;;10445971;28;20498;-81
2022/05/08 02:01:37;;;;;;;6.90;5.93;;;;;;;;;;10451317;28;20518;-81
2022/05/08 02:06:39;;;;;;;6.65;5.60;;;;;;;;;;10458978;28;20479;-81
2022/05/08 02:11:42;;;;;;;5.83;5.23;;;;;;;;;;10458575;28;20509;-80
2022/05/08 02:16:44;;;;;;;6.30;5.25;;;;;;;;;;10461066;28;20449;-81
2022/05/08 02:21:45;;;;;;;5.57;4.90;;;;;;;;;;10455798;28;20447;-81
2022/05/08 02:26:48;;;;;;;6.90;4.45;;;;;;;;;;10459662;28;20518;-80
2022/05/08 02:31:50;;;;;;;5.75;4.80;;;;;;;;;;10460761;28;20481;-80
2022/05/08 02:36:52;;;;;;;4.88;4.38;;;;;;;;;;10453539;28;20527;-81
2022/05/08 02:41:55;;;;;;;5.47;4.40;;;;;;;;;;10457539;28;20402;-81
2022/05/08 02:46:57;;;;;;;5.13;4.20;;;;;;;;;;10457035;28;20885;-80
2022/05/08 02:51:59;;;;;;;5.03;4.23;;;;;;;;;;10458940;28;20414;-80
2022/05/08 03:02:21;;;;;;;4.50;3.95;;;;;;;;;;10470687;28;20394;-81
2022/05/08 03:07:23;;;;;;;4.90;3.90;;;;;;;;;;10462848;28;20998;-81
2022/05/08 03:12:26;;;;;;;4.30;3.65;;;;;;;;;;10467901;28;20491;-81
2022/05/08 03:17:28;;;;;;;4.30;3.90;;;;;;;;;;10464013;28;20416;-81
2022/05/08 03:22:30;;;;;;;4.20;3.70;;;;;;;;;;10462884;28;20418;-80
2022/05/08 03:27:33;;;;;;;4.95;3.65;;;;;;;;;;10466670;28;20930;-80
2022/05/08 03:32:34;;;;;;;4.60;3.50;;;;;;;;;;10466624;28;20408;-80
2022/05/08 03:37:36;;;;;;;3.90;3.50;;;;;;;;;;10462115;28;20829;-80
2022/05/08 03:42:39;;;;;;;3.70;3.40;;;;;;;;;;10466197;28;20498;-80
2022/05/08 03:47:41;;;;;;;4.87;3.27;;;;;;;;;;10466571;28;20484;-81
2022/05/08 03:52:43;;;;;;;4.22;3.83;;;;;;;;;;10464505;28;20428;-82
2022/05/08 03:57:46;;;;;;;3.78;3.42;;;;;;;;;;10464847;28;20398;-81
2022/05/08 04:02:49;;;;;;;4.45;3.22;;;;;;;;;;10465564;28;20400;-81
2022/05/08 04:07:50;;;;;;;3.30;3.00;;;;;;;;;;10446388;28;20506;-81
2022/05/08 04:12:54;;;;;;;4.05;3.55;;;;;;;;;;10454605;28;20483;-81
2022/05/08 04:17:55;;;;;;;4.28;3.60;;;;;;;;;;10438379;28;20822;-80
2022/05/08 04:28:19;;;;;;;4.03;3.57;;;;;;;;;;10476799;28;20768;-81
2022/05/08 04:33:21;;;;;;;6.10;4.07;;;;;;;;;;10442534;28;20517;-81
2022/05/08 04:38:23;;;;;;;4.78;4.38;;;;;;;;;;10441312;28;20976;-82
2022/05/08 04:43:26;;;;;;;5.10;4.60;;;;;;;;;;10441371;28;20419;-80
2022/05/08 04:48:29;;;;;;;5.23;4.73;;;;;;;;;;10438406;28;20468;-81
2022/05/08 04:53:30;;;;;;;4.50;4.10;;;;;;;;;;10452442;28;20410;-82
2022/05/08 04:58:34;;;;;;;5.20;4.20;;;;;;;;;;10475972;28;20762;-81
2022/05/08 05:03:35;;;;;;;4.53;4.10;;;;;;;;;;10476918;28;20565;-79
2022/05/08 05:08:37;;;;;;;4.63;4.20;;;;;;;;;;10456447;28;20407;-81
2022/05/08 05:13:40;;;;;;;5.32;3.88;;;;;;;;;;10440407;28;20818;-80
2022/05/08 05:18:42;;;;;;;4.03;3.65;;;;;;;;;;10439790;28;20490;-80
2022/05/08 05:23:44;;;;;;;4.28;3.60;;;;;;;;;;10440172;28;20495;-81
2022/05/08 05:28:47;;;;;;;4.13;3.73;;;;;;;;;;10440392;28;20411;-81
2022/05/08 05:33:49;;;;;;;5.65;3.95;;;;;;;;;;10439520;28;20923;-81
2022/05/08 05:38:51;;;;;;;4.28;3.88;;;;;;;;;;10439416;28;20478;-81
2022/05/08 05:43:54;;;;;;;4.40;4.00;;;;;;;;;;10465615;28;20490;-81
2022/05/08 05:48:56;;;;;;;5.03;4.17;;;;;;;;;;10438774;28;20612;-81
2022/05/08 05:53:58;;;;;;;5.22;4.00;;;;;;;;;;10438015;28;20867;-82
2022/05/08 05:59:01;;;;;;;4.18;3.78;;;;;;;;;;10438974;28;20863;-81
2022/05/08 06:04:03;;;;;;;4.10;3.70;;;;;;;;;;10442034;28;20867;-79
2022/05/08 06:09:05;;;;;;;5.20;3.83;;;;;;;;;;10438958;28;20500;-81
2022/05/08 06:14:08;;;;;;;5.10;4.05;;;;;;;;;;10443217;28;20422;-82
2022/05/08 06:19:10;;;;;;;5.07;4.20;;;;;;;;;;10439382;28;20405;-81
2022/05/08 06:24:11;;;;;;;4.90;4.20;;;;;;;;;;10438994;28;20498;-80
2022/05/08 06:29:14;;;;;;;5.25;4.57;;;;;;;;;;10439776;28;20403;-81
2022/05/08 06:34:16;;;;;;;5.38;4.90;;;;;;;;;;10438354;28;20415;-82
2022/05/08 06:39:18;;;;;;;6.90;5.05;;;;;;;;;;10440774;28;20806;-81
2022/05/08 06:44:21;;;;;;;5.93;5.30;;;;;;;;;;10443934;28;20474;-82
2022/05/08 06:49:23;;;;;;;5.80;5.20;;;;;;;;;;10436985;22;20429;-82
2022/05/08 06:54:26;;;;;;;5.78;5.28;;;;;;;;;;10454199;28;20430;-82
2022/05/08 07:04:48;;;;;;;6.15;5.47;;;;;;;;;;10418230;28;20404;-82
2022/05/08 07:09:51;;;;;;;6.80;6.00;;;;;;;;;;10436374;28;21241;-82
2022/05/08 07:14:56;;;;;;;7.90;6.40;;;;;;;;;;10432773;28;20434;-83
2022/05/08 07:19:58;;;;;;;8.20;5.70;;;;;;;;;;10411907;28;20407;-81
2022/05/08 07:25:00;;;;;;;7.38;5.60;;;;;;;;;;10413057;28;20494;-81
2022/05/08 07:30:04;;;;;;;6.30;5.70;;;;;;;;;;10402206;28;20899;-82
2022/05/08 07:40:26;;;;;;;6.43;5.80;;;;;;;;;;10413235;28;20408;-81
2022/05/08 07:45:29;;;;;;;7.68;6.00;;;;;;;;;;10421670;28;20409;-83
2022/05/08 07:50:31;;;;;;;7.07;6.18;;;;;;;;;;10417238;28;20408;-82
2022/05/08 07:55:33;;;;;;;7.70;6.10;;;;;;;;;;10427746;28;20789;-83
2022/05/08 08:00:37;;;;;;;7.00;6.30;;;;;;;;;;10437095;28;20771;-81
2022/05/08 08:05:39;;;;;;;7.25;6.32;;;;;;;;;;10437628;28;20917;-82
2022/05/08 08:10:41;;;;;;;7.68;6.78;;;;;;;;;;10469879;28;20489;-81
2022/05/08 08:15:45;;;;;;;9.40;7.60;;;;;;;;;;10482969;28;20924;-82
2022/05/08 08:20:47;;;;;;;8.40;7.60;;;;;;;;;;10482733;28;20409;-80
2022/05/08 08:25:49;;;;;;;10.35;7.75;;;;;;;;;;10447808;28;20418;-81
2022/05/08 08:30:52;;;;;;;7.90;6.70;;;;;;;;;;10441861;28;20491;-82
2022/05/08 08:35:55;;;;;;;7.32;6.53;;;;;;;;;;10441017;28;20695;-81
2022/05/08 08:41:02;;;;;;;7.75;6.80;;;;;;;;;;10441232;28;20910;-82
2022/05/08 08:51:24;;;;;;;6.88;6.25;;;;;;;;;;10439107;28;20391;-80
2022/05/08 08:56:27;;;;;;;6.70;6.03;;;;;;;;;;10437040;28;20649;-82
2022/05/08 09:01:34;;;;;;;6.97;6.28;;;;;;;;;;10435050;28;20411;-80
2022/05/08 09:06:40;;;;;;;8.35;6.63;;;;;;;;;;10437978;28;20411;-81
2022/05/08 09:11:42;;;;;;;7.72;6.63;;;;;;;;;;10438953;28;20415;-81
2022/05/08 09:17:04;;;;;;;8.25;7.20;;;;;;;;;;10438932;28;20463;-82
2022/05/08 09:22:07;;;;;;;7.87;6.97;;;;;;;;;;10438805;28;20408;-82
2022/05/08 09:27:13;;;;;;;7.32;6.50;;;;;;;;;;10438361;28;20477;-81
2022/05/08 09:32:35;;;;;;;6.63;6.00;;;;;;;;;;10439008;28;20412;-81
2022/05/08 09:37:52;;;;;;;6.23;5.67;;;;;;;;;;10435097;28;20435;-82
2022/05/08 09:42:54;;;;;;;6.75;6.00;;;;;;;;;;10439407;28;20794;-81
2022/05/08 09:47:58;;;;;;;7.75;6.05;;;;;;;;;;10375051;28;1849880;-80
2022/05/08 09:53:00;;;;;;;7.70;7.00;;;;;;;;;;10436927;28;20411;-82
2022/05/08 09:58:02;;;;;;;7.90;7.10;;;;;;;;;;10440235;28;21007;-81
2022/05/08 10:03:07;;;;;;;8.47;7.27;;;;;;;;;;10436195;28;20399;-82
2022/05/08 10:08:10;;;;;;;8.63;7.13;;;;;;;;;;10438266;28;20433;-82
2022/05/08 10:18:32;;;;;;;9.02;7.60;;;;;;;;;;10437327;28;20502;-81
2022/05/08 10:23:36;;;;;;;10.30;8.00;;;;;;;;;;10436079;28;20488;-80
2022/05/08 10:29:16;;;;;;;45.20;40.45;;;;;;;;;;10440637;28;20416;-82
2022/05/08 10:34:31;;;;;;;26.45;23.92;;;;;;;;;;10424015;28;20420;-82
2022/05/08 10:39:37;;;;;;;13.65;11.05;;;;;;;;;;10436832;28;20418;-82
2022/05/08 10:44:40;;;;;;;9.13;8.20;;;;;;;;;;10439972;28;20399;-82
2022/05/08 10:49:45;;;;;;;8.33;7.50;;;;;;;;;;10438311;28;20837;-81
2022/05/08 10:54:56;;;;;;;11.13;8.73;;;;;;;;;;10438381;28;20805;-82
2022/05/08 10:59:59;;;;;;;9.07;8.13;;;;;;;;;;10435210;28;20431;-82
2022/05/08 11:05:02;;;;;;;12.40;9.80;;;;;;;;;;10435998;28;20435;-82
2022/05/08 11:10:15;;;;;;;9.48;8.50;;;;;;;;;;10439258;28;20475;-80
2022/05/08 11:15:16;;;;;;;10.45;9.45;;;;;;;;;;10439458;28;20535;-82
2022/05/08 11:20:20;;;;;;;11.32;9.68;;;;;;;;;;10445598;28;20688;-81
2022/05/08 11:25:22;;;;;;;10.45;8.45;;;;;;;;;;10447642;28;20418;-82
2022/05/08 11:30:31;;;;;;;16.85;14.82;;;;;;;;;;10448401;28;20410;-82
2022/05/08 11:40:53;;;;;;;9.93;8.52;;;;;;;;;;10447602;28;20966;-82
2022/05/08 11:45:59;;;;;;;9.35;8.45;;;;;;;;;;10447901;28;20417;-82
2022/05/08 11:51:02;;;;;;;9.48;8.40;;;;;;;;;;10444259;28;20879;-82
2022/05/08 11:56:21;;;;;;;9.98;7.45;;;;;;;;;;10446533;28;20437;-81
2022/05/08 12:01:27;;;;;;;8.80;7.72;;;;;;;;;;10447224;28;20436;-82
2022/05/08 12:06:30;;;;;;;9.40;7.80;;;;;;;;;;10444310;28;20491;-82
2022/05/08 12:11:37;;;;;;;8.37;7.47;;;;;;;;;;10448266;28;20406;-83
2022/05/08 12:16:39;;;;;;;185.05;164.73;;;;;;;;;;10448439;28;20428;-82
2022/05/08 12:21:43;;;;;;;21.42;18.88;;;;;;;;;;10448026;28;20498;-82
2022/05/08 12:26:45;;;;;;;23.07;18.83;;;;;;;;;;10447740;28;20408;-82
2022/05/08 12:31:50;;;;;;;8.32;7.43;;;;;;;;;;10448112;28;20409;-83
2022/05/08 12:36:53;;;;;;;22.50;17.40;;;;;;;;;;10446612;28;20428;-82
2022/05/08 12:41:55;;;;;;;7.55;6.40;;;;;;;;;;10447109;28;20931;-82
2022/05/08 12:46:57;;;;;;;6.68;6.05;;;;;;;;;;10438889;28;20403;-82
2022/05/08 12:52:00;;;;;;;7.40;6.70;;;;;;;;;;10439519;28;20415;-82
2022/05/08 12:57:03;;;;;;;6.97;6.07;;;;;;;;;;10443876;28;20523;-82
2022/05/08 13:02:05;;;;;;;6.57;5.78;;;;;;;;;;10448025;28;20388;-81
2022/05/08 13:07:09;;;;;;;6.05;5.45;;;;;;;;;;10446499;28;21469;-82
2022/05/08 13:12:12;;;;;;;6.83;6.13;;;;;;;;;;10447104;28;20487;-82
2022/05/08 13:17:13;;;;;;;6.60;5.90;;;;;;;;;;10446570;28;20423;-83
2022/05/08 13:22:17;;;;;;;6.55;5.88;;;;;;;;;;10445767;28;20407;-82
2022/05/08 13:27:18;;;;;;;6.45;5.85;;;;;;;;;;10447308;28;20425;-82
2022/05/08 13:32:20;;;;;;;5.68;5.13;;;;;;;;;;10446722;28;20771;-83
2022/05/08 13:37:23;;;;;;;7.20;5.10;;;;;;;;;;10446209;28;20421;-82
2022/05/08 13:42:25;;;;;;;6.63;4.70;;;;;;;;;;10445664;28;20921;-83
2022/05/08 13:47:27;;;;;;;4.70;4.13;;;;;;;;;;10436474;28;20483;-83
2022/05/08 13:52:30;;;;;;;5.03;4.53;;;;;;;;;;10438788;28;20414;-83
2022/05/08 13:57:33;;;;;;;5.70;4.50;;;;;;;;;;10447523;28;20776;-82
2022/05/08 14:02:34;;;;;;;5.43;4.93;;;;;;;;;;10444226;28;20408;-83
2022/05/08 14:07:38;;;;;;;5.53;4.87;;;;;;;;;;10434912;28;20893;-83
2022/05/08 14:12:40;;;;;;;5.35;4.85;;;;;;;;;;10417356;28;20485;-82
2022/05/08 14:17:42;;;;;;;7.03;5.53;;;;;;;;;;10415466;28;20429;-83
2022/05/08 14:22:45;;;;;;;5.27;4.77;;;;;;;;;;10422137;28;20413;-82
2022/05/08 14:27:48;;;;;;;6.05;5.00;;;;;;;;;;10425510;28;20423;-83
2022/05/08 14:38:12;;;;;;;5.20;4.70;;;;;;;;;;10429578;28;20400;-83
2022/05/08 14:43:14;;;;;;;5.40;4.63;;;;;;;;;;10420345;28;20429;-81
2022/05/08 14:48:16;;;;;;;6.10;5.30;;;;;;;;;;10422318;28;20412;-83
2022/05/08 14:53:19;;;;;;;5.63;5.13;;;;;;;;;;10434050;28;20423;-82
2022/05/08 14:58:23;;;;;;;5.47;4.93;;;;;;;;;;10434773;28;20505;-83
2022/05/08 15:03:25;;;;;;;5.07;4.57;;;;;;;;;;10432186;28;20417;-83
2022/05/08 15:08:28;;;;;;;5.90;5.13;;;;;;;;;;10434979;28;20498;-83
2022/05/08 15:13:30;;;;;;;5.97;4.90;;;;;;;;;;10433195;28;20907;-82
2022/05/08 15:18:50;;;;;;;6.10;5.20;;;;;;;;;;10441367;28;20843;-82
2022/05/08 15:23:54;;;;;;;6.85;5.25;;;;;;;;;;10432890;28;20421;-82
2022/05/08 15:28:56;;;;;;;7.35;5.50;;;;;;;;;;10441927;28;20423;-83
2022/05/08 15:33:59;;;;;;;7.47;5.40;;;;;;;;;;10436971;28;20419;-82
2022/05/08 15:39:03;;;;;;;6.47;5.13;;;;;;;;;;10434124;28;21076;-83
2022/05/08 15:44:05;;;;;;;8.00;5.80;;;;;;;;;;10446942;28;20922;-81
2022/05/08 15:49:07;;;;;;;6.55;5.53;;;;;;;;;;10431507;28;20411;-83
2022/05/08 15:54:18;;;;;;;6.10;5.45;;;;;;;;;;10437530;28;20482;-84
2022/05/08 15:59:20;;;;;;;6.63;5.40;;;;;;;;;;10433363;28;20521;-83
2022/05/08 16:04:22;;;;;;;6.57;5.60;;;;;;;;;;10432768;28;20427;-83
2022/05/08 16:09:25;;;;;;;7.50;6.03;;;;;;;;;;10436317;28;20421;-83
2022/05/08 16:25:12;;;;;;;9.20;6.03;;;;;;;;;;10429821;28;20413;-83
2022/05/08 16:30:14;;;;;;;5.90;5.30;;;;;;;;;;10429237;28;20460;-82
2022/05/08 16:35:16;;;;;;;7.40;4.80;;;;;;;;;;10437744;28;20428;-82
2022/05/08 16:40:20;;;;;;;7.43;5.00;;;;;;;;;;10434383;28;20421;-82
2022/05/08 16:45:23;;;;;;;7.22;4.38;;;;;;;;;;10432603;28;20497;-83
2022/05/08 16:50:25;;;;;;;6.45;4.60;;;;;;;;;;10419992;28;20413;-83
2022/05/08 16:55:29;;;;;;;5.60;4.80;;;;;;;;;;10427842;28;20415;-83
2022/05/08 17:00:31;;;;;;;6.45;4.82;;;;;;;;;;10429552;28;20420;-82
2022/05/08 17:05:33;;;;;;;6.00;5.10;;;;;;;;;;10430548;28;20427;-82
2022/05/08 17:10:37;;;;;;;5.80;5.05;;;;;;;;;;10422466;28;20411;-81
2022/05/08 17:15:41;;;;;;;16.10;8.73;;;;;;;;;;10430827;28;20420;-81
2022/05/08 17:20:43;;;;;;;14.67;7.43;;;;;;;;;;10431408;28;20505;-81
2022/05/08 17:25:46;;;;;;;8.13;5.97;;;;;;;;;;10437556;28;20422;-81
2022/05/08 17:30:48;;;;;;;7.78;5.57;;;;;;;;;;10433853;28;20417;-80
2022/05/08 17:35:50;;;;;;;5.90;4.97;;;;;;;;;;10439567;28;20429;-80
2022/05/08 17:40:54;;;;;;;7.10;4.90;;;;;;;;;;10436833;28;20454;-81
2022/05/08 17:45:56;;;;;;;7.20;5.45;;;;;;;;;;10426742;28;20430;-82
2022/05/08 17:50:58;;;;;;;6.13;5.43;;;;;;;;;;10396693;28;20417;-81
2022/05/08 17:56:01;;;;;;;13.88;5.75;;;;;;;;;;10393733;28;21072;-80
2022/05/08 18:01:03;;;;;;;6.63;5.68;;;;;;;;;;10388534;28;20419;-81
2022/05/08 18:06:07;;;;;;;12.77;5.20;;;;;;;;;;10386102;28;20425;-80
2022/05/08 18:11:11;;;;;;;6.78;5.00;;;;;;;;;;10384922;28;20425;-82
2022/05/08 18:16:14;;;;;;;6.47;5.67;;;;;;;;;;10385823;28;20537;-81
2022/05/08 18:21:16;;;;;;;6.10;5.47;;;;;;;;;;10385608;28;20431;-82
2022/05/08 18:26:19;;;;;;;6.07;5.57;;;;;;;;;;10395760;28;20500;-81
2022/05/08 18:31:21;;;;;;;8.52;5.78;;;;;;;;;;10397565;28;21155;-81
2022/05/08 18:36:23;;;;;;;7.50;6.50;;;;;;;;;;10402954;28;20446;-81
2022/05/08 18:41:26;;;;;;;7.78;6.03;;;;;;;;;;10377645;28;20425;-81
2022/05/08 18:46:28;;;;;;;7.38;5.80;;;;;;;;;;10391676;28;20421;-80
2022/05/08 18:51:30;;;;;;;7.67;5.80;;;;;;;;;;10387490;28;20508;-81
2022/05/08 18:56:33;;;;;;;7.77;6.23;;;;;;;;;;10403018;28;21075;-81
2022/05/08 19:01:36;;;;;;;6.57;5.63;;;;;;;;;;10397693;28;20412;-80
2022/05/08 19:06:38;;;;;;;9.30;5.95;;;;;;;;;;10401227;28;20492;-80
2022/05/08 19:11:42;;;;;;;7.87;6.40;;;;;;;;;;10400793;28;20421;-80
2022/05/08 19:16:43;;;;;;;9.87;6.93;;;;;;;;;;10398743;28;20467;-80
2022/05/08 19:21:46;;;;;;;8.87;6.53;;;;;;;;;;10389472;28;20484;-80
2022/05/08 19:26:50;;;;;;;7.38;6.32;;;;;;;;;;10391363;28;20976;-80
2022/05/08 19:42:35;;;;;;;7.32;6.63;;;;;;;;;;10389439;28;20417;-79
2022/05/08 19:47:37;;;;;;;6.53;5.87;;;;;;;;;;10388837;28;20497;-79
2022/05/08 19:52:39;;;;;;;8.27;6.97;;;;;;;;;;10393348;28;20995;-80
2022/05/08 19:57:44;;;;;;;9.13;7.15;;;;;;;;;;10392619;28;20528;-81
2022/05/08 20:02:45;;;;;;;8.30;6.87;;;;;;;;;;10379278;28;20421;-81
2022/05/08 20:07:47;;;;;;;9.20;6.90;;;;;;;;;;10393736;28;20785;-80
2022/05/08 20:12:51;;;;;;;7.57;6.88;;;;;;;;;;10395046;28;20955;-82
2022/05/08 20:17:52;;;;;;;8.83;6.80;;;;;;;;;;10399312;28;20511;-82
2022/05/08 20:22:55;;;;;;;8.45;7.10;;;;;;;;;;10408665;28;20423;-83
2022/05/08 20:27:59;;;;;;;9.40;7.20;;;;;;;;;;10398373;28;20451;-82
2022/05/08 20:33:02;;;;;;;8.45;7.18;;;;;;;;;;10388978;28;20425;-81
2022/05/08 20:38:04;;;;;;;8.25;7.45;;;;;;;;;;10396819;28;20440;-80
2022/05/08 20:43:07;;;;;;;9.35;8.07;;;;;;;;;;10397443;28;20417;-83
2022/05/08 20:48:10;;;;;;;10.67;8.23;;;;;;;;;;10424707;28;20414;-82
2022/05/08 20:53:12;;;;;;;9.57;8.07;;;;;;;;;;10437503;28;21147;-82
2022/05/08 20:58:16;;;;;;;9.20;8.20;;;;;;;;;;10435142;28;20452;-82
2022/05/08 21:03:18;;;;;;;9.17;7.77;;;;;;;;;;10432665;28;20412;-82
2022/05/08 21:08:21;;;;;;;9.82;8.35;;;;;;;;;;10439501;28;20451;-82
2022/05/08 21:13:26;;;;;;;10.00;8.30;;;;;;;;;;10440721;28;20804;-82
2022/05/08 21:18:28;;;;;;;10.73;8.97;;;;;;;;;;10446272;28;20922;-82
2022/05/08 21:23:30;;;;;;;11.07;9.25;;;;;;;;;;10441482;28;20406;-81
2022/05/08 21:28:33;;;;;;;11.20;10.05;;;;;;;;;;10441608;28;20450;-81
2022/05/08 21:33:35;;;;;;;10.82;9.43;;;;;;;;;;10432900;28;20418;-82
2022/05/08 21:38:37;;;;;;;11.07;9.48;;;;;;;;;;10435946;28;20419;-82
2022/05/08 21:43:40;;;;;;;10.80;9.38;;;;;;;;;;10431153;28;20455;-82
2022/05/08 21:48:42;;;;;;;10.90;8.77;;;;;;;;;;10402675;28;20598;-81
2022/05/08 21:53:44;;;;;;;11.50;9.07;;;;;;;;;;10396716;28;20415;-81
2022/05/08 21:58:47;;;;;;;10.35;8.52;;;;;;;;;;10401331;28;20425;-82
2022/05/08 22:03:49;;;;;;;10.95;8.40;;;;;;;;;;10397195;28;20405;-81
2022/05/08 22:08:51;;;;;;;9.18;7.55;;;;;;;;;;10397631;28;20419;-82
2022/05/08 22:13:54;;;;;;;9.00;7.60;;;;;;;;;;10395664;28;20868;-81
2022/05/08 22:24:15;;;;;;;9.23;7.28;;;;;;;;;;10405865;28;20406;-80
2022/05/08 22:29:18;;;;;;;8.02;7.22;;;;;;;;;;10407880;28;20400;-81
2022/05/08 22:34:20;;;;;;;7.65;6.85;;;;;;;;;;10407288;28;21115;-80
2022/05/08 22:39:22;;;;;;;7.95;6.80;;;;;;;;;;10407313;28;20425;-81
2022/05/08 22:44:25;;;;;;;7.33;6.30;;;;;;;;;;10407990;28;20412;-80
2022/05/08 22:49:27;;;;;;;7.72;6.50;;;;;;;;;;10446875;28;20416;-81
2022/05/08 22:54:29;;;;;;;8.65;6.55;;;;;;;;;;10452885;28;20406;-80
2022/05/08 22:59:32;;;;;;;9.83;6.47;;;;;;;;;;10452718;28;20418;-82
2022/05/08 23:04:34;;;;;;;9.13;7.20;;;;;;;;;;10437005;28;20815;-81
2022/05/08 23:09:35;;;;;;;7.37;6.37;;;;;;;;;;10444485;28;20843;-81
2022/05/08 23:15:22;;;;;;;8.80;6.15;;;;;;;;;;10456283;28;20499;-81
2022/05/08 23:20:05;;;;;;;7.05;6.25;;;;;;;;;;10459506;28;20406;-81
2022/05/08 23:25:08;;;;;;;7.72;6.80;;;;;;;;;;10444673;28;20403;-80
2022/05/08 23:30:10;;;;;;;7.27;6.10;;;;;;;;;;10445246;28;20408;-81
2022/05/08 23:35:14;;;;;;;7.77;6.50;;;;;;;;;;10444869;28;20439;-82
2022/05/08 23:40:18;;;;;;;7.28;6.20;;;;;;;;;;10456486;28;20515;-81
2022/05/08 23:45:22;;;;;;;7.50;6.10;;;;;;;;;;10456148;28;20399;-80
2022/05/08 23:50:26;;;;;;;7.20;5.97;;;;;;;;;;10458648;28;20398;-81
2022/05/08 23:55:29;;;;;;;7.37;6.43;;;;;;;;;;10454253;28;20402;-82
